createdAt,value
2019-03-31T15:44:07.767Z,100881.70
2019-03-31T15:46:39.406Z,100887.41
2019-03-31T15:49:10.859Z,100879.64
2019-03-31T15:51:42.109Z,100884.77
2019-03-31T15:54:13.465Z,100888.61
2019-03-31T15:56:44.911Z,100891.25
2019-03-31T15:59:16.391Z,100883.96
2019-03-31T16:01:48.917Z,100886.22
2019-03-31T16:04:20.591Z,100888.30
2019-03-31T16:06:51.776Z,100883.64
2019-03-31T16:09:24.218Z,100882.86
2019-03-31T16:11:56.088Z,100886.06
2019-03-31T16:14:31.482Z,100889.77
2019-03-31T16:17:04.611Z,100826.27
2019-03-31T16:19:36.167Z,100881.70
2019-03-31T16:22:07.512Z,100896.12
2019-03-31T16:24:40.604Z,100895.45
2019-03-31T16:29:41.051Z,100895.43
2019-03-31T16:32:12.261Z,100893.76
2019-03-31T16:34:48.219Z,100889.20
2019-03-31T16:37:19.636Z,100891.88
2019-03-31T16:39:52.059Z,100894.05
2019-03-31T16:42:23.537Z,100893.53
2019-03-31T16:44:58.365Z,100893.71
2019-03-31T16:47:29.311Z,100892.34
2019-03-31T16:50:00.682Z,100897.55
2019-03-31T16:52:32.964Z,100898.21
2019-03-31T16:55:04.984Z,100896.31
2019-03-31T16:57:36.341Z,100896.59
2019-03-31T17:00:08.007Z,100901.73
2019-03-31T17:02:39.400Z,100901.31
2019-03-31T17:05:21.644Z,100906.16
2019-03-31T17:07:44.165Z,100905.55
2019-03-31T17:10:16.482Z,100910.03
2019-03-31T17:12:49.584Z,100908.13
2019-03-31T17:15:21.075Z,100908.84
2019-03-31T17:17:52.876Z,100907.09
2019-03-31T17:20:24.423Z,100904.06
2019-03-31T17:22:55.687Z,100901.37
2019-03-31T17:25:27.130Z,100901.58
2019-03-31T17:27:58.542Z,100898.20
2019-03-31T17:30:30.134Z,100899.92
2019-03-31T17:33:01.240Z,100898.26
2019-03-31T17:35:32.636Z,100908.58
2019-03-31T17:38:04.971Z,100904.61
2019-03-31T17:40:37.202Z,100918.36
2019-03-31T17:43:08.372Z,100912.95
2019-03-31T17:45:40.993Z,100915.47
2019-03-31T17:48:12.804Z,100914.36
2019-03-31T17:50:44.200Z,100912.66
2019-03-31T17:53:15.521Z,100915.96
2019-03-31T17:55:47.846Z,100914.13
2019-03-31T17:58:19.116Z,100912.33
2019-03-31T18:00:50.715Z,100919.24
2019-03-31T18:03:22.141Z,100917.23
2019-03-31T18:05:53.535Z,100914.55
2019-03-31T18:08:24.940Z,100921.08
2019-03-31T18:10:56.457Z,100915.80
2019-03-31T18:13:29.230Z,100913.90
2019-03-31T18:16:00.785Z,100915.41
2019-03-31T18:18:32.226Z,100917.38
2019-03-31T18:21:03.615Z,100910.31
2019-03-31T18:23:35.037Z,100911.70
2019-03-31T18:26:06.689Z,100908.59
2019-03-31T18:28:38.037Z,100906.23
2019-03-31T18:31:09.627Z,100905.63
2019-03-31T18:33:41.054Z,100905.44
2019-03-31T18:36:12.603Z,100897.25
2019-03-31T18:38:43.937Z,100905.14
2019-03-31T18:41:15.301Z,100903.61
2019-03-31T18:43:51.610Z,100908.85
2019-03-31T18:46:21.992Z,100907.07
2019-03-31T18:48:53.713Z,100905.29
2019-03-31T18:51:25.434Z,100902.66
2019-03-31T18:54:06.548Z,100901.52
2019-03-31T18:56:42.705Z,100899.53
2019-03-31T18:59:32.059Z,100894.44
2019-03-31T19:02:08.193Z,100895.09
2019-03-31T19:04:41.373Z,100885.22
2019-03-31T19:07:26.586Z,100882.55
2019-03-31T19:10:05.433Z,100886.49
2019-03-31T19:12:47.645Z,100882.28
2019-03-31T19:15:24.556Z,100877.23
2019-03-31T19:17:59.936Z,100878.43
2019-03-31T19:20:49.278Z,100881.06
2019-03-31T19:23:25.953Z,100872.40
2019-03-31T19:26:14.118Z,100878.02
2019-03-31T19:28:53.224Z,100879.36
2019-03-31T19:31:42.710Z,100884.17
2019-03-31T19:34:25.808Z,100890.67
2019-03-31T19:36:58.910Z,100882.62
2019-03-31T19:39:44.194Z,100881.80
2019-03-31T19:42:28.997Z,100878.88
2019-03-31T19:45:02.148Z,100884.52
2019-03-31T19:47:39.023Z,100892.53
2019-03-31T19:50:12.037Z,100883.88
2019-03-31T19:52:51.834Z,100890.44
2019-03-31T19:55:41.664Z,100887.60
2019-03-31T19:58:15.861Z,100886.96
2019-03-31T20:01:05.575Z,100902.38
2019-03-31T20:03:38.632Z,100888.81
2019-03-31T20:06:27.797Z,100891.81
2019-03-31T20:09:09.708Z,100895.00
2019-03-31T20:11:42.778Z,100899.86
2019-03-31T20:14:21.917Z,100904.73
2019-03-31T20:17:12.320Z,100916.52
2019-03-31T20:20:02.007Z,100911.87
2019-03-31T20:22:51.368Z,100909.57
2019-03-31T20:25:24.385Z,100911.50
2019-03-31T20:28:06.566Z,100911.73
2019-03-31T20:30:39.524Z,100910.67
2019-03-31T20:33:12.532Z,100915.75
2019-03-31T20:35:57.606Z,100912.28
2019-03-31T20:38:32.934Z,100909.41
2019-03-31T20:41:08.772Z,100914.34
2019-03-31T20:43:41.812Z,100918.87
2019-03-31T20:46:13.347Z,100919.20
2019-03-31T20:48:45.799Z,100901.23
2019-03-31T20:51:17.257Z,100918.50
2019-03-31T20:53:48.571Z,100915.14
2019-03-31T20:56:22.043Z,100914.77
2019-03-31T20:58:53.549Z,100909.45
2019-03-31T21:01:24.731Z,100920.95
2019-03-31T21:03:57.261Z,100913.61
2019-03-31T21:06:28.751Z,100921.53
2019-03-31T21:08:59.870Z,100913.72
2019-03-31T21:11:31.145Z,100914.51
2019-03-31T21:14:03.620Z,100913.30
2019-03-31T21:16:34.977Z,100920.00
2019-03-31T21:19:06.111Z,100916.53
2019-03-31T21:21:38.132Z,100916.20
2019-03-31T21:26:38.799Z,100911.02
2019-03-31T21:29:10.176Z,100920.64
2019-03-31T21:31:42.344Z,100914.14
2019-03-31T21:34:13.590Z,100915.51
2019-03-31T21:36:44.996Z,100911.87
2019-03-31T21:39:16.290Z,100914.70
2019-03-31T21:41:47.442Z,100913.10
2019-03-31T21:44:18.746Z,100908.16
2019-03-31T21:46:49.881Z,100912.66
2019-03-31T21:49:22.205Z,100914.70
2019-03-31T21:51:53.671Z,100911.55
2019-03-31T21:54:26.445Z,100917.13
2019-03-31T21:56:57.707Z,100906.16
2019-03-31T21:59:29.061Z,100902.42
2019-03-31T22:02:00.361Z,100907.32
2019-03-31T22:04:31.839Z,100905.70
2019-03-31T22:07:03.300Z,100912.53
2019-03-31T22:09:34.617Z,100908.94
2019-03-31T22:12:05.985Z,100914.65
2019-03-31T22:14:37.140Z,100910.37
2019-03-31T22:17:08.250Z,100913.17
2019-03-31T22:19:39.532Z,100909.84
2019-03-31T22:22:10.889Z,100907.59
2019-03-31T22:24:42.189Z,100905.31
2019-03-31T22:27:13.588Z,100896.50
2019-03-31T22:29:45.027Z,100895.16
2019-03-31T22:32:16.504Z,100890.44
2019-03-31T22:34:47.926Z,100889.62
2019-03-31T22:37:19.047Z,100892.09
2019-03-31T22:39:50.555Z,100893.14
2019-03-31T22:42:21.797Z,100896.38
2019-03-31T22:44:53.137Z,100893.41
2019-03-31T22:47:24.416Z,100889.84
2019-03-31T22:49:56.841Z,100888.13
2019-03-31T22:52:28.628Z,100891.13
2019-03-31T22:54:59.741Z,100885.02
2019-03-31T22:57:31.201Z,100891.05
2019-03-31T23:00:02.521Z,100892.72
2019-03-31T23:02:35.562Z,100885.39
2019-03-31T23:05:06.690Z,100883.41
2019-03-31T23:07:37.957Z,100878.16
2019-03-31T23:10:09.106Z,100877.30
2019-03-31T23:12:42.274Z,100870.55
2019-03-31T23:15:13.520Z,100868.53
2019-03-31T23:17:44.972Z,100873.91
2019-03-31T23:20:16.114Z,100868.73
2019-03-31T23:22:47.394Z,100865.01
2019-03-31T23:25:18.490Z,100865.13
2019-03-31T23:27:49.934Z,100870.72
2019-03-31T23:30:21.176Z,100872.05
2019-03-31T23:32:52.550Z,100872.95
2019-03-31T23:35:23.792Z,100873.47
2019-03-31T23:37:55.299Z,100872.04
2019-03-31T23:40:26.750Z,100868.41
2019-03-31T23:42:58.053Z,100869.74
2019-03-31T23:45:32.282Z,100868.23
2019-03-31T23:48:02.800Z,100865.47
2019-03-31T23:50:34.772Z,100870.25
2019-03-31T23:53:06.008Z,100866.09
2019-03-31T23:55:37.401Z,100860.52
2019-03-31T23:58:08.716Z,100861.27
